Time;durP1;ratioP1;P1;durP2;ratioP2;P2;SDS_P1;SDS_P2;PMS_P1;PMS_P2;Temp;Humidity;BMP_temperature;BMP_pressure;BME280_temperature;BME280_humidity;BME280_pressure;Samples;Min_cycle;Max_cycle;Signal;HPM_P1;HPM_P2
2021/03/30 00:00:48;;;;;;;15.75;6.40;;;;;;;8.32;79.96;102742.03;6322720;28;20401;-77
2021/03/30 00:03:50;;;;;;;14.13;6.35;;;;;;;8.32;80.26;102747.28;6322482;28;20454;-76
2021/03/30 00:06:51;;;;;;;13.35;7.28;;;;;;;8.26;81.04;102748.19;6322580;28;20048;-77
2021/03/30 00:09:52;;;;;;;15.20;7.57;;;;;;;8.23;80.74;102750.84;6322567;28;20052;-77
2021/03/30 00:12:53;;;;;;;13.07;7.10;;;;;;;8.14;80.67;102751.81;6322217;28;20454;-76
2021/03/30 00:15:54;;;;;;;15.15;7.38;;;;;;;8.12;80.58;102753.56;6322565;28;20135;-76
2021/03/30 00:18:56;;;;;;;14.30;6.55;;;;;;;8.08;80.28;102746.66;6322248;28;20470;-76
2021/03/30 00:21:57;;;;;;;20.33;6.97;;;;;;;8.07;80.47;102755.38;6322078;28;20044;-76
2021/03/30 00:24:58;;;;;;;15.82;7.80;;;;;;;8.00;80.91;102755.47;6322180;28;20048;-76
2021/03/30 00:27:59;;;;;;;14.25;7.00;;;;;;;7.99;81.29;102754.59;6322480;28;20055;-76
2021/03/30 00:31:00;;;;;;;17.30;6.72;;;;;;;7.97;81.50;102752.88;6321643;28;20055;-76
2021/03/30 00:34:02;;;;;;;18.33;7.35;;;;;;;7.91;82.53;102745.97;6322278;28;20122;-76
2021/03/30 00:37:04;;;;;;;18.13;7.18;;;;;;;7.87;82.09;102741.66;6322060;28;20044;-77
2021/03/30 00:40:07;;;;;;;14.50;6.32;;;;;;;7.89;81.78;102748.59;6321779;28;20493;-76
2021/03/30 00:43:07;;;;;;;17.13;6.75;;;;;;;7.85;80.90;102749.50;6321559;28;20048;-77
2021/03/30 00:46:13;;;;;;;18.52;7.50;;;;;;;7.86;81.16;102750.38;6321665;28;20055;-77
2021/03/30 00:49:15;;;;;;;16.67;6.75;;;;;;;7.84;80.74;102747.75;6321699;28;20109;-76
2021/03/30 00:52:17;;;;;;;17.20;7.80;;;;;;;7.83;79.90;102753.03;6321368;28;20044;-76
2021/03/30 00:55:18;;;;;;;13.88;7.07;;;;;;;7.84;80.80;102747.75;6321814;28;20067;-76
2021/03/30 00:58:19;;;;;;;16.75;7.78;;;;;;;7.85;80.53;102748.63;6321319;28;20048;-76
2021/03/30 01:01:20;;;;;;;14.40;7.47;;;;;;;7.92;79.63;102758.16;6321092;28;20052;-76
2021/03/30 01:04:21;;;;;;;12.85;7.22;;;;;;;7.92;79.35;102758.16;6321335;28;20055;-76
2021/03/30 01:07:22;;;;;;;16.08;6.55;;;;;;;7.93;78.43;102761.66;6321647;28;20048;-77
2021/03/30 01:10:34;;;;;;;17.75;7.25;;;;;;;7.99;77.20;102756.34;6321200;28;20462;-76
2021/03/30 01:13:52;;;;;;;13.45;6.18;;;;;;;7.98;76.92;102752.84;6321296;28;20048;-77
2021/03/30 01:17:02;;;;;;;15.52;7.03;;;;;;;7.94;76.98;102755.53;6321301;28;20062;-76
2021/03/30 01:20:41;;;;;;;18.65;6.50;;;;;;;7.91;77.19;102760.81;6321339;28;20096;-77
2021/03/30 01:23:55;;;;;;;12.82;6.93;;;;;;;7.92;76.98;102752.06;6321248;28;20052;-76
2021/03/30 01:27:00;;;;;;;10.93;5.30;;;;;;;7.96;74.42;102752.03;6321153;28;20088;-76
2021/03/30 01:30:05;;;;;;;12.63;6.35;;;;;;;7.92;74.06;102750.31;6320898;28;20125;-76
2021/03/30 01:33:10;;;;;;;15.80;6.05;;;;;;;7.91;75.18;102753.81;6321073;28;20048;-76
2021/03/30 01:36:12;;;;;;;13.80;6.13;;;;;;;7.89;75.71;102756.44;6321180;28;20054;-76
2021/03/30 01:39:16;;;;;;;13.55;5.78;;;;;;;7.87;75.63;102752.13;6321089;28;20055;-77
2021/03/30 01:42:21;;;;;;;18.77;7.35;;;;;;;7.83;76.46;102750.41;6320526;28;20044;-76
2021/03/30 01:45:24;;;;;;;12.93;6.28;;;;;;;7.82;76.91;102756.53;6320956;28;20048;-76
2021/03/30 01:48:25;;;;;;;24.80;7.47;;;;;;;7.75;76.24;102754.84;6320763;28;20048;-76
2021/03/30 01:51:28;;;;;;;11.93;6.35;;;;;;;7.71;77.69;102753.13;6347851;22;20048;-74
2021/03/30 01:54:29;;;;;;;12.27;6.20;;;;;;;7.63;78.38;102750.59;6336195;28;20055;-75
2021/03/30 01:57:32;;;;;;;13.93;6.32;;;;;;;7.62;77.75;102748.84;6346132;28;20138;-74
2021/03/30 02:00:37;;;;;;;15.10;6.05;;;;;;;7.57;77.41;102746.28;6324742;28;20056;-75
2021/03/30 02:03:39;;;;;;;13.07;6.05;;;;;;;7.57;76.28;102743.66;6329432;28;20043;-75
2021/03/30 02:06:44;;;;;;;24.75;6.60;;;;;;;7.56;77.27;102741.06;6344834;28;20101;-75
2021/03/30 02:09:50;;;;;;;9.32;5.95;;;;;;;7.53;78.33;102749.78;6325813;28;20055;-75
2021/03/30 02:12:51;;;;;;;14.63;6.68;;;;;;;7.49;78.19;102755.91;6320501;28;20083;-75
2021/03/30 02:16:01;;;;;;;16.25;6.45;;;;;;;7.42;77.57;102754.25;6320847;28;20048;-75
2021/03/30 02:19:08;;;;;;;11.23;6.28;;;;;;;7.43;77.41;102750.75;6320692;28;20052;-74
2021/03/30 02:22:18;;;;;;;14.50;6.50;;;;;;;7.41;77.50;102751.66;6320425;28;20048;-75
2021/03/30 02:25:20;;;;;;;12.75;6.15;;;;;;;7.44;77.45;102756.84;6320553;28;20055;-75
2021/03/30 02:28:25;;;;;;;13.48;5.88;;;;;;;7.45;77.37;102742.88;6320881;28;20044;-75
2021/03/30 02:31:30;;;;;;;16.73;7.00;;;;;;;7.42;78.76;102750.78;6331313;28;20052;-75
2021/03/30 02:34:33;;;;;;;14.80;6.60;;;;;;;7.40;78.21;102755.13;6348272;28;20047;-75
2021/03/30 02:37:36;;;;;;;15.40;7.22;;;;;;;7.43;77.40;102747.28;6350247;28;20054;-75
2021/03/30 02:40:38;;;;;;;18.58;6.57;;;;;;;7.48;76.18;102745.47;6349880;28;20048;-75
2021/03/30 02:43:41;;;;;;;15.10;6.35;;;;;;;7.52;74.25;102748.06;6349979;28;20048;-75
2021/03/30 02:46:44;;;;;;;13.85;6.57;;;;;;;7.62;72.98;102738.38;6349854;28;20055;-75
2021/03/30 02:49:45;;;;;;;13.68;6.35;;;;;;;7.62;73.12;102748.84;6349431;28;20059;-75
2021/03/30 02:52:46;;;;;;;15.10;7.07;;;;;;;7.72;72.25;102741.78;6349589;28;20055;-75
2021/03/30 02:55:48;;;;;;;11.77;6.88;;;;;;;7.69;74.02;102744.44;6349924;28;20051;-75
2021/03/30 02:58:51;;;;;;;11.88;6.15;;;;;;;7.69;72.84;102744.44;6349664;28;20713;-75
2021/03/30 03:01:53;;;;;;;15.35;7.43;;;;;;;7.61;76.04;102747.13;6349493;28;20050;-75
2021/03/30 03:04:54;;;;;;;23.67;7.53;;;;;;;7.50;75.81;102747.22;6349803;28;20054;-74
2021/03/30 03:07:56;;;;;;;21.50;6.78;;;;;;;7.45;74.07;102754.25;6349624;28;20061;-75
2021/03/30 03:10:58;;;;;;;12.77;6.80;;;;;;;7.50;73.41;102751.59;6349159;28;20055;-75
2021/03/30 03:13:59;;;;;;;18.77;6.55;;;;;;;7.72;68.99;102752.25;6349193;28;20048;-75
2021/03/30 03:17:02;;;;;;;13.57;7.30;;;;;;;7.83;71.22;102747.78;6349483;28;20047;-75
2021/03/30 03:20:04;;;;;;;13.07;6.60;;;;;;;7.75;72.61;102749.59;6349019;28;20047;-75
2021/03/30 03:23:06;;;;;;;11.98;6.38;;;;;;;7.69;74.09;102757.53;6349032;28;20048;-74
2021/03/30 03:26:07;;;;;;;18.77;6.35;;;;;;;7.77;71.35;102751.34;6348737;28;20503;-75
2021/03/30 03:29:16;;;;;;;16.42;6.78;;;;;;;7.81;71.44;102754.78;6348921;28;20055;-75
2021/03/30 03:32:23;;;;;;;14.20;7.07;;;;;;;7.67;75.82;102751.41;6348659;28;20450;-74
2021/03/30 03:35:24;;;;;;;16.58;8.40;;;;;;;7.55;76.50;102755.91;6348800;28;20048;-74
2021/03/30 03:38:24;;;;;;;18.52;7.22;;;;;;;7.36;76.52;102763.03;6348776;28;20062;-75
2021/03/30 03:41:25;;;;;;;14.45;6.95;;;;;;;7.31;77.76;102763.91;6348164;28;20564;-75
2021/03/30 03:44:27;;;;;;;13.95;6.55;;;;;;;7.16;76.48;102764.91;6348118;28;20090;-74
2021/03/30 03:47:29;;;;;;;13.55;7.47;;;;;;;7.08;78.16;102770.16;6348467;28;20044;-75
2021/03/30 03:50:30;;;;;;;14.52;7.47;;;;;;;7.03;77.18;102766.72;6348350;28;20094;-74
2021/03/30 03:53:35;;;;;;;16.25;7.55;;;;;;;6.98;79.11;102765.00;6348134;28;20043;-74
2021/03/30 03:56:40;;;;;;;18.15;7.75;;;;;;;6.96;80.31;102764.16;6348326;28;20491;-74
2021/03/30 03:59:45;;;;;;;13.85;7.07;;;;;;;6.92;79.00;102762.44;6348005;28;20043;-75
2021/03/30 04:02:51;;;;;;;16.95;7.70;;;;;;;6.89;79.43;102767.69;6348282;28;20046;-74
2021/03/30 04:06:01;;;;;;;17.38;7.68;;;;;;;6.85;80.72;102761.59;6348111;28;20052;-74
2021/03/30 04:09:05;;;;;;;14.07;7.47;;;;;;;6.82;80.13;102761.63;6348015;28;20526;-74
2021/03/30 04:12:08;;;;;;;16.85;7.72;;;;;;;6.82;78.69;102762.50;6347545;28;20051;-75
2021/03/30 04:15:10;;;;;;;18.83;7.95;;;;;;;6.72;79.62;102752.97;6347928;28;20051;-75
2021/03/30 04:18:12;;;;;;;21.23;8.25;;;;;;;6.70;79.85;102751.22;6347763;28;20051;-75
2021/03/30 04:21:20;;;;;;;13.25;8.07;;;;;;;6.70;79.46;102757.31;6347468;28;20441;-75
2021/03/30 04:24:20;;;;;;;13.27;8.05;;;;;;;6.67;80.10;102759.94;6347380;28;20050;-75
2021/03/30 04:27:21;;;;;;;15.50;7.32;;;;;;;6.68;80.37;102755.63;6347718;28;20051;-75
2021/03/30 04:30:24;;;;;;;14.98;8.38;;;;;;;6.71;80.37;102758.19;6347440;28;20044;-74
2021/03/30 04:33:25;;;;;;;17.05;8.23;;;;;;;6.70;80.56;102765.16;6347320;28;20054;-75
2021/03/30 04:36:26;;;;;;;21.05;9.23;;;;;;;6.65;80.40;102763.44;6347268;28;20070;-78
2021/03/30 04:39:27;;;;;;;22.45;9.20;;;;;;;6.64;79.79;102762.59;6347127;28;20051;-74
2021/03/30 04:42:28;;;;;;;18.67;9.35;;;;;;;6.62;80.44;102759.09;6347099;28;20048;-75
2021/03/30 04:45:30;;;;;;;16.77;8.82;;;;;;;6.58;80.87;102757.38;6347252;28;20107;-75
2021/03/30 04:48:32;;;;;;;24.27;9.80;;;;;;;6.57;81.46;102763.47;6346995;28;20483;-75
2021/03/30 04:51:33;;;;;;;24.08;9.95;;;;;;;6.58;81.58;102759.97;6346703;28;20048;-75
2021/03/30 04:54:34;;;;;;;18.30;9.85;;;;;;;6.56;81.95;102764.34;6347042;28;20044;-75
2021/03/30 04:57:34;;;;;;;18.00;9.52;;;;;;;6.55;81.80;102767.84;6346163;28;20051;-74
2021/03/30 05:00:35;;;;;;;27.40;9.70;;;;;;;6.51;81.63;102779.19;6346723;28;20526;-75
2021/03/30 05:03:37;;;;;;;22.73;9.65;;;;;;;6.47;81.18;102785.28;6346352;28;20044;-74
2021/03/30 05:06:38;;;;;;;18.38;9.48;;;;;;;6.52;81.61;102794.84;6346570;28;20530;-75
2021/03/30 05:09:39;;;;;;;16.88;9.45;;;;;;;6.57;81.51;102792.22;6345565;28;20040;-74
2021/03/30 05:12:40;;;;;;;19.20;9.98;;;;;;;6.58;79.98;102793.94;6345924;28;20043;-75
2021/03/30 05:15:41;;;;;;;23.75;10.25;;;;;;;6.67;79.23;102806.97;6326483;28;20397;-75
2021/03/30 05:18:44;;;;;;;15.75;8.93;;;;;;;6.64;79.17;102811.38;6336225;28;20051;-75
2021/03/30 05:21:45;;;;;;;16.92;9.25;;;;;;;6.69;77.82;102812.22;6341033;28;20074;-76
2021/03/30 05:24:46;;;;;;;20.92;9.98;;;;;;;6.74;75.98;102811.31;6346313;28;20040;-75
2021/03/30 05:27:47;;;;;;;19.17;9.40;;;;;;;6.82;75.39;102809.53;6345373;28;20067;-74
2021/03/30 05:30:48;;;;;;;15.07;8.95;;;;;;;6.91;75.09;102811.25;6332406;28;20412;-75
2021/03/30 05:33:50;;;;;;;15.50;8.82;;;;;;;6.96;75.21;102808.59;6343195;28;20047;-75
2021/03/30 05:36:51;;;;;;;16.25;9.20;;;;;;;7.09;74.85;102816.38;6346445;28;20056;-74
2021/03/30 05:39:52;;;;;;;17.95;9.05;;;;;;;7.29;71.55;102812.75;6346088;28;20411;-74
2021/03/30 05:42:54;;;;;;;24.25;9.15;;;;;;;7.46;70.43;102815.28;6320833;28;20047;-75
2021/03/30 05:45:59;;;;;;;19.27;9.20;;;;;;;7.55;71.15;102823.06;6320898;28;20052;-74
2021/03/30 05:49:01;;;;;;;21.58;10.38;;;;;;;7.68;70.10;102826.44;6321118;28;20547;-74
2021/03/30 05:52:03;;;;;;;23.77;10.05;;;;;;;7.80;69.29;102821.97;6320214;28;20052;-74
2021/03/30 05:55:05;;;;;;;16.75;9.13;;;;;;;7.86;68.30;102834.16;6320746;28;20531;-75
2021/03/30 05:58:08;;;;;;;18.17;9.48;;;;;;;7.88;68.35;102835.84;6320671;28;20093;-74
2021/03/30 06:01:12;;;;;;;21.98;9.60;;;;;;;7.94;68.78;102824.47;6320691;28;20048;-75
2021/03/30 06:04:14;;;;;;;23.88;9.23;;;;;;;8.00;69.89;102831.41;6320758;28;20044;-75
2021/03/30 06:07:16;;;;;;;22.80;10.10;;;;;;;7.98;70.68;102830.53;6330596;28;20054;-75
2021/03/30 06:10:18;;;;;;;20.15;9.23;;;;;;;8.06;68.69;102829.59;6345014;28;20048;-74
2021/03/30 06:13:44;;;;;;;17.08;9.20;;;;;;;8.13;67.77;102833.91;6350532;28;20071;-75
2021/03/30 06:16:47;;;;;;;22.08;10.55;;;;;;;8.34;65.61;102837.16;6350205;28;20048;-75
2021/03/30 06:19:52;;;;;;;18.92;9.93;;;;;;;8.43;66.23;102839.72;6350566;28;20516;-75
2021/03/30 06:22:55;;;;;;;19.23;8.82;;;;;;;8.47;66.99;102837.94;6350185;28;20079;-75
2021/03/30 06:25:58;;;;;;;25.35;10.30;;;;;;;8.48;67.88;102840.53;6350683;28;20043;-75
2021/03/30 06:28:59;;;;;;;19.77;10.05;;;;;;;8.49;67.97;102850.13;6350286;28;20054;-75
2021/03/30 06:32:02;;;;;;;18.17;10.00;;;;;;;8.52;66.49;102846.63;6350360;28;20052;-76
2021/03/30 06:35:12;;;;;;;19.95;9.45;;;;;;;8.61;68.28;102854.38;6350280;28;20138;-75
2021/03/30 06:38:13;;;;;;;21.15;10.18;;;;;;;8.62;67.13;102850.88;6350298;28;20063;-76
2021/03/30 06:41:26;;;;;;;21.45;10.75;;;;;;;8.73;66.32;102851.63;6349743;28;20542;-76
2021/03/30 06:44:33;;;;;;;23.35;11.07;;;;;;;8.87;64.03;102849.72;6350207;28;20047;-78
2021/03/30 06:47:34;;;;;;;22.08;10.52;;;;;;;9.07;64.50;102849.44;6350204;28;20070;-78
2021/03/30 06:50:38;;;;;;;18.40;10.23;;;;;;;9.19;63.65;102852.81;6349515;28;20051;-78
2021/03/30 06:53:39;;;;;;;22.63;10.50;;;;;;;9.38;62.65;102855.13;6349753;28;20039;-78
2021/03/30 06:56:47;;;;;;;21.33;11.02;;;;;;;9.65;61.96;102853.84;6349599;28;20054;-78
2021/03/30 06:59:48;;;;;;;22.50;10.27;;;;;;;9.76;60.53;102852.81;6335867;28;20063;-78
2021/03/30 07:02:51;;;;;;;25.40;10.73;;;;;;;9.90;60.15;102856.97;6334225;28;20045;-77
2021/03/30 07:05:53;;;;;;;19.48;10.40;;;;;;;9.96;59.69;102850.72;6346275;28;20051;-75
2021/03/30 07:08:55;;;;;;;28.00;11.05;;;;;;;9.99;60.59;102857.69;6339560;28;20052;-79
2021/03/30 07:11:57;;;;;;;24.42;10.48;;;;;;;10.11;59.64;102852.22;6334200;28;20047;-78
2021/03/30 07:14:58;;;;;;;27.65;12.05;;;;;;;10.21;59.26;102858.19;6335353;28;20055;-76
2021/03/30 07:18:06;;;;;;;20.30;10.73;;;;;;;10.30;59.28;102868.56;6334246;28;20047;-78
2021/03/30 07:21:11;;;;;;;24.55;11.80;;;;;;;10.41;58.29;102867.47;6332963;28;20052;-78
2021/03/30 07:24:15;;;;;;;23.65;11.07;;;;;;;10.52;57.44;102869.88;6336711;28;20090;-78
2021/03/30 07:27:20;;;;;;;23.58;11.00;;;;;;;10.56;59.10;102876.81;6334279;28;20044;-77
2021/03/30 07:30:24;;;;;;;27.35;11.13;;;;;;;10.67;58.79;102876.59;6335673;28;20048;-78
2021/03/30 07:33:33;;;;;;;27.35;11.90;;;;;;;10.72;57.36;102885.31;6332676;28;20044;-78
2021/03/30 07:36:39;;;;;;;25.42;11.18;;;;;;;10.85;57.83;102878.00;6340188;28;20050;-76
2021/03/30 07:39:46;;;;;;;26.13;12.90;;;;;;;10.92;57.36;102877.88;6337103;28;20461;-75
2021/03/30 07:42:49;;;;;;;26.17;12.43;;;;;;;11.05;56.54;102880.25;6339494;28;20046;-75
2021/03/30 07:45:52;;;;;;;41.38;11.82;;;;;;;11.16;57.08;102881.72;6333976;28;20043;-77
2021/03/30 07:48:54;;;;;;;40.22;14.00;;;;;;;11.23;56.66;102884.25;6333785;28;20111;-75
2021/03/30 07:52:16;;;;;;;33.90;12.88;;;;;;;11.36;56.24;102891.84;6333556;28;20221;-78
2021/03/30 07:55:20;;;;;;;25.58;12.18;;;;;;;11.51;56.07;102887.13;6334571;28;20044;-78
2021/03/30 07:58:35;;;;;;;22.77;11.80;;;;;;;11.56;55.52;102888.75;6343968;28;20063;-78
2021/03/30 08:01:37;;;;;;;29.58;12.38;;;;;;;11.61;54.82;102888.66;6346145;28;20051;-77
2021/03/30 08:04:38;;;;;;;31.25;13.15;;;;;;;11.62;55.69;102893.00;6331866;28;20050;-78
2021/03/30 08:07:51;;;;;;;26.08;11.75;;;;;;;11.84;55.37;102888.13;6333328;28;20051;-78
2021/03/30 08:10:53;;;;;;;33.13;12.82;;;;;;;11.81;55.63;102890.78;6334554;28;20067;-75
2021/03/30 08:13:58;;;;;;;28.17;11.10;;;;;;;11.87;54.65;102893.34;6338500;28;20092;-77
2021/03/30 08:17:01;;;;;;;27.95;12.38;;;;;;;12.00;54.27;102896.53;6346901;28;20129;-76
2021/03/30 08:20:07;;;;;;;26.25;12.48;;;;;;;12.12;53.41;102893.56;6345017;28;20042;-74
2021/03/30 08:23:12;;;;;;;32.72;13.48;;;;;;;12.50;52.74;102894.38;6344070;28;20047;-77
2021/03/30 08:26:18;;;;;;;25.02;11.60;;;;;;;12.37;53.40;102899.97;6343258;28;20061;-77
2021/03/30 08:29:23;;;;;;;27.95;11.95;;;;;;;12.36;54.02;102892.97;6345411;28;20044;-76
2021/03/30 08:32:24;;;;;;;27.33;12.10;;;;;;;12.46;52.92;102892.72;6343119;28;20047;-76
2021/03/30 08:35:37;;;;;;;27.27;12.18;;;;;;;12.57;53.48;102904.69;6338485;28;20051;-75
2021/03/30 08:38:46;;;;;;;32.00;12.82;;;;;;;12.59;53.50;102899.41;6342471;28;20047;-76
2021/03/30 08:41:59;;;;;;;31.02;12.60;;;;;;;12.58;53.68;102895.91;6344475;28;20046;-76
2021/03/30 08:45:06;;;;;;;29.40;12.45;;;;;;;12.60;54.19;102891.44;6341204;28;20462;-75
2021/03/30 08:48:11;;;;;;;26.70;12.82;;;;;;;12.56;54.45;102902.09;6321353;28;20092;-75
2021/03/30 08:51:15;;;;;;;23.80;11.30;;;;;;;12.64;54.73;102905.41;6339299;28;20472;-74
2021/03/30 08:54:17;;;;;;;31.38;13.60;;;;;;;12.88;52.80;102903.84;6342524;28;20050;-75
2021/03/30 08:57:21;;;;;;;28.25;13.68;;;;;;;12.89;53.28;102909.06;6345815;28;20126;-74
2021/03/30 09:00:22;;;;;;;27.95;12.80;;;;;;;13.15;54.11;102910.09;6346378;28;20134;-75
2021/03/30 09:03:27;;;;;;;29.60;13.27;;;;;;;13.08;53.95;102908.53;6336443;28;20388;-73
2021/03/30 09:06:28;;;;;;;31.50;12.88;;;;;;;13.25;53.72;102908.09;6345803;28;20056;-75
2021/03/30 09:09:34;;;;;;;25.40;12.70;;;;;;;13.24;54.20;102907.22;6346052;28;20047;-74
2021/03/30 09:12:35;;;;;;;28.17;12.90;;;;;;;13.29;53.54;102917.66;6344474;28;20168;-75
2021/03/30 09:15:36;;;;;;;27.15;12.88;;;;;;;13.32;53.24;102907.88;6346716;28;20420;-75
2021/03/30 09:18:37;;;;;;;26.58;12.38;;;;;;;13.43;54.01;102908.38;6346389;28;20153;-75
2021/03/30 09:21:38;;;;;;;27.23;11.93;;;;;;;13.48;54.14;102899.47;6345124;28;20055;-75
2021/03/30 09:24:54;;;;;;;30.17;13.23;;;;;;;13.71;53.01;102912.81;6345172;28;20063;-74
2021/03/30 09:27:55;;;;;;;24.50;12.00;;;;;;;13.61;54.88;102911.38;6345755;28;20044;-74
2021/03/30 09:30:56;;;;;;;33.58;12.90;;;;;;;13.63;54.64;102907.78;6345956;28;20044;-75
2021/03/30 09:33:58;;;;;;;25.83;10.13;;;;;;;13.92;53.86;102903.34;6346094;28;20043;-75
2021/03/30 09:37:00;;;;;;;27.98;12.63;;;;;;;14.18;52.44;102907.78;6335848;28;20055;-75
2021/03/30 09:40:11;;;;;;;24.33;10.95;;;;;;;14.06;53.85;102897.59;6319633;28;20139;-75
2021/03/30 09:43:13;;;;;;;27.45;12.57;;;;;;;14.11;54.27;102898.28;6320315;28;20051;-75
2021/03/30 09:46:14;;;;;;;35.30;13.55;;;;;;;14.41;52.70;102884.03;6325300;28;20066;-75
2021/03/30 09:49:18;;;;;;;30.67;12.25;;;;;;;14.38;54.11;102891.19;6326064;28;20060;-75
2021/03/30 09:52:20;;;;;;;32.13;11.98;;;;;;;14.53;54.00;102890.69;6331963;28;20044;-76
2021/03/30 09:55:30;;;;;;;25.92;12.07;;;;;;;14.56;53.07;102893.22;6347395;28;20058;-76
2021/03/30 09:58:31;;;;;;;25.65;11.23;;;;;;;14.48;52.40;102889.97;6343419;28;20501;-76
2021/03/30 10:01:32;;;;;;;22.25;11.00;;;;;;;14.58;53.62;102891.41;6346269;28;20059;-76
2021/03/30 10:04:34;;;;;;;25.60;12.20;;;;;;;14.79;53.34;102892.41;6327354;28;20044;-75
2021/03/30 10:07:37;;;;;;;28.25;12.63;;;;;;;14.74;53.94;102897.00;6341676;28;20047;-80
2021/03/30 10:10:42;;;;;;;24.17;10.80;;;;;;;14.88;52.59;102901.78;6341960;28;20051;-75
2021/03/30 10:13:43;;;;;;;24.27;10.35;;;;;;;15.00;52.91;102898.69;6338608;28;20098;-76
2021/03/30 10:16:45;;;;;;;26.33;11.40;;;;;;;14.97;52.26;102901.44;6342068;28;20051;-75
2021/03/30 10:19:47;;;;;;;30.85;12.30;;;;;;;15.39;52.77;102898.94;6349685;28;20520;-76
2021/03/30 10:22:48;;;;;;;23.88;10.50;;;;;;;15.66;52.48;102894.34;6337528;28;20048;-75
2021/03/30 10:25:50;;;;;;;27.23;10.80;;;;;;;15.40;52.43;102895.38;6333810;28;20098;-75
2021/03/30 10:28:52;;;;;;;22.02;9.90;;;;;;;15.60;53.01;102888.41;6349857;28;20043;-76
2021/03/30 10:31:58;;;;;;;26.92;10.57;;;;;;;15.74;51.76;102886.09;6327937;28;20085;-75
2021/03/30 10:34:59;;;;;;;30.60;11.07;;;;;;;15.71;51.62;102875.59;6326949;28;20059;-77
2021/03/30 10:38:00;;;;;;;22.63;10.27;;;;;;;16.00;51.26;102878.88;6344738;28;20036;-76
2021/03/30 10:41:04;;;;;;;27.90;10.25;;;;;;;15.83;52.83;102864.50;6323421;28;20055;-77
2021/03/30 10:44:07;;;;;;;18.55;9.15;;;;;;;16.19;51.97;102862.09;6324751;28;20052;-76
2021/03/30 10:47:18;;;;;;;22.35;9.82;;;;;;;16.30;51.46;102866.06;6324217;28;20048;-76
2021/03/30 10:50:21;;;;;;;27.02;10.57;;;;;;;16.22;51.55;102869.06;6323645;28;20064;-77
2021/03/30 10:53:22;;;;;;;24.83;11.20;;;;;;;16.23;51.50;102869.00;6322584;28;20059;-77
2021/03/30 10:56:24;;;;;;;29.85;11.32;;;;;;;16.36;51.82;102863.16;6334863;28;20048;-76
2021/03/30 10:59:25;;;;;;;28.40;11.82;;;;;;;16.58;50.27;102865.69;6345029;28;20047;-76
2021/03/30 11:02:26;;;;;;;31.45;12.18;;;;;;;16.59;50.32;102863.00;6347960;28;20048;-75
2021/03/30 11:05:27;;;;;;;32.20;11.23;;;;;;;16.59;49.72;102863.00;6340202;28;20544;-76
2021/03/30 11:08:28;;;;;;;31.88;12.82;;;;;;;16.67;51.12;102852.91;6349062;28;20518;-76
2021/03/30 11:11:30;;;;;;;26.85;10.85;;;;;;;16.96;51.77;102856.03;6348105;28;20056;-76
2021/03/30 11:14:31;;;;;;;29.67;11.50;;;;;;;16.94;48.53;102856.13;6349266;28;20101;-77
2021/03/30 11:17:32;;;;;;;29.10;11.45;;;;;;;16.97;49.96;102861.28;6339129;28;20492;-77
2021/03/30 11:20:33;;;;;;;24.95;11.85;;;;;;;17.23;49.29;102862.72;6323411;28;20483;-77
2021/03/30 11:23:34;;;;;;;30.73;15.05;;;;;;;17.29;48.41;102848.25;6322837;28;20047;-76
2021/03/30 11:26:38;;;;;;;32.85;12.20;;;;;;;17.49;48.74;102848.16;6323250;28;20074;-76
2021/03/30 11:29:43;;;;;;;24.88;11.63;;;;;;;17.77;46.20;102857.47;6323261;28;20134;-76
2021/03/30 11:32:56;;;;;;;29.30;12.68;;;;;;;17.85;47.89;102855.28;6322553;28;20385;-76
2021/03/30 11:36:02;;;;;;;28.35;11.32;;;;;;;17.95;45.92;102847.72;6323322;28;20055;-76
2021/03/30 11:39:03;;;;;;;26.65;11.57;;;;;;;18.00;45.56;102840.34;6323172;28;20082;-75
2021/03/30 11:42:06;;;;;;;27.27;11.90;;;;;;;18.03;45.28;102836.66;6322413;28;20055;-78
2021/03/30 11:45:09;;;;;;;27.83;11.80;;;;;;;18.49;44.26;102838.66;6322646;28;20098;-75
2021/03/30 11:48:10;;;;;;;24.15;11.48;;;;;;;18.39;45.59;102832.06;6322852;28;20051;-76
2021/03/30 11:51:11;;;;;;;27.40;12.18;;;;;;;18.65;43.75;102828.03;6329714;28;20515;-75
2021/03/30 11:54:12;;;;;;;27.42;11.68;;;;;;;18.56;44.97;102832.97;6347366;28;20044;-75
2021/03/30 11:57:13;;;;;;;28.02;12.10;;;;;;;18.93;44.20;102826.53;6332470;28;20052;-78
2021/03/30 12:00:16;;;;;;;31.15;13.45;;;;;;;19.21;44.51;102823.19;6346176;28;20059;-76
2021/03/30 12:03:16;;;;;;;29.33;12.35;;;;;;;19.55;42.32;102810.59;6338355;28;20040;-79
2021/03/30 12:06:17;;;;;;;29.23;12.52;;;;;;;19.53;42.74;102813.34;6347329;28;20518;-78
2021/03/30 12:09:18;;;;;;;23.52;10.95;;;;;;;19.67;43.09;102812.59;6325100;28;20051;-75
2021/03/30 12:12:20;;;;;;;29.27;11.68;;;;;;;19.72;40.81;102802.50;6321472;28;20117;-76
2021/03/30 12:15:21;;;;;;;25.90;12.40;;;;;;;19.74;40.14;102804.09;6338013;28;20419;-76
2021/03/30 12:18:22;;;;;;;37.20;13.10;;;;;;;19.77;41.32;102806.59;6340835;28;20546;-77
2021/03/30 12:21:24;;;;;;;24.92;11.32;;;;;;;20.03;39.94;102804.19;6338794;28;20051;-75
2021/03/30 12:24:26;;;;;;;25.98;12.60;;;;;;;20.14;38.80;102798.19;6341865;28;20544;-75
2021/03/30 12:27:27;;;;;;;25.10;11.32;;;;;;;20.26;39.96;102792.97;6339276;28;20050;-77
2021/03/30 12:30:29;;;;;;;30.48;11.95;;;;;;;20.44;40.18;102784.75;6328764;28;20105;-76
2021/03/30 12:33:29;;;;;;;25.17;11.68;;;;;;;20.63;39.15;102784.50;6341430;28;20047;-76
2021/03/30 12:36:30;;;;;;;24.20;11.02;;;;;;;20.90;40.55;102785.41;6337409;28;20523;-76
2021/03/30 12:39:32;;;;;;;33.08;11.63;;;;;;;20.89;38.19;102783.69;6341850;28;20054;-76
2021/03/30 12:42:34;;;;;;;24.70;11.82;;;;;;;20.68;37.37;102782.38;6341508;28;20062;-76
2021/03/30 12:45:35;;;;;;;25.00;11.43;;;;;;;20.82;39.25;102778.81;6338585;28;20055;-76
2021/03/30 12:48:36;;;;;;;30.05;11.48;;;;;;;21.40;38.78;102767.88;6346888;28;20054;-76
2021/03/30 12:51:37;;;;;;;28.45;11.95;;;;;;;21.41;39.60;102772.25;6326530;28;20500;-76
2021/03/30 12:54:38;;;;;;;33.65;12.35;;;;;;;21.26;37.05;102765.22;6321289;28;20051;-75
2021/03/30 12:57:40;;;;;;;24.10;11.27;;;;;;;21.06;35.89;102769.19;6321653;28;20048;-76
2021/03/30 13:00:41;;;;;;;30.23;11.25;;;;;;;21.13;35.28;102754.47;6335101;28;20503;-75
2021/03/30 13:03:42;;;;;;;24.63;11.50;;;;;;;21.19;35.00;102754.06;6344308;28;20083;-76
2021/03/30 13:06:43;;;;;;;26.92;11.75;;;;;;;20.98;35.00;102745.66;6339864;28;20044;-75
2021/03/30 13:09:45;;;;;;;23.83;11.65;;;;;;;21.53;35.38;102735.81;6342797;28;20054;-75
2021/03/30 13:12:47;;;;;;;27.08;10.45;;;;;;;21.63;35.67;102742.22;6345401;28;20047;-75
2021/03/30 13:15:48;;;;;;;25.67;11.65;;;;;;;21.80;36.21;102741.03;6344216;28;20059;-75
2021/03/30 13:18:49;;;;;;;26.67;11.50;;;;;;;21.97;33.72;102735.38;6340049;28;20329;-76
2021/03/30 13:21:50;;;;;;;33.83;12.38;;;;;;;22.24;32.19;102731.75;6336034;28;20043;-76
2021/03/30 13:24:51;;;;;;;28.95;11.25;;;;;;;22.11;32.20;102725.53;6345452;28;20096;-77
2021/03/30 13:27:53;;;;;;;26.27;10.98;;;;;;;22.27;33.40;102719.00;6337947;28;20088;-76
2021/03/30 13:30:54;;;;;;;24.13;11.07;;;;;;;22.14;33.10;102712.81;6345266;28;20050;-76
2021/03/30 13:33:54;;;;;;;23.92;10.65;;;;;;;22.51;31.42;102712.84;6337604;28;20044;-76
2021/03/30 13:36:55;;;;;;;26.50;10.95;;;;;;;22.53;31.88;102705.56;6346299;28;20105;-76
2021/03/30 13:39:58;;;;;;;22.35;10.57;;;;;;;22.88;31.39;102700.25;6345961;28;20424;-76
2021/03/30 13:42:59;;;;;;;24.83;9.82;;;;;;;22.88;30.80;102688.69;6345297;28;20096;-76
2021/03/30 13:46:00;;;;;;;31.02;10.35;;;;;;;22.72;28.97;102702.38;6345821;28;20073;-76
2021/03/30 13:49:01;;;;;;;23.85;10.05;;;;;;;22.81;30.99;102692.81;6337589;28;20043;-76
2021/03/30 13:52:03;;;;;;;24.98;10.52;;;;;;;22.92;29.45;102690.19;6344694;28;20078;-77
2021/03/30 13:55:06;;;;;;;20.92;9.55;;;;;;;23.21;28.20;102683.50;6345821;28;20039;-76
2021/03/30 13:58:08;;;;;;;25.17;9.80;;;;;;;23.17;28.42;102687.38;6337377;28;20446;-76
2021/03/30 14:01:10;;;;;;;23.67;10.38;;;;;;;22.87;29.08;102690.50;6335668;28;20155;-76